createdAt,value
2023-02-11T00:02:08.598Z,82.43
2023-02-11T00:04:38.214Z,82.38
2023-02-11T00:07:09.175Z,82.68
2023-02-11T00:09:46.391Z,82.61
2023-02-11T00:12:16.052Z,82.81
2023-02-11T00:14:45.627Z,83.31
2023-02-11T00:17:15.293Z,83.42
2023-02-11T00:19:45.024Z,83.08
2023-02-11T00:22:16.017Z,82.92
2023-02-11T00:24:45.595Z,82.52
2023-02-11T00:27:15.038Z,82.70
2023-02-11T00:29:44.572Z,82.86
2023-02-11T00:32:14.501Z,83.17
2023-02-11T00:34:58.038Z,83.42
2023-02-11T00:37:29.402Z,83.22
2023-02-11T00:39:58.969Z,83.41
2023-02-11T00:42:28.392Z,83.31
2023-02-11T00:44:58.014Z,83.42
2023-02-11T00:50:36.363Z,83.60
2023-02-11T00:53:05.879Z,83.59
2023-02-11T00:55:35.845Z,83.97
2023-02-11T00:58:11.718Z,84.36
2023-02-11T01:00:41.213Z,84.11
2023-02-11T01:03:10.766Z,83.47
2023-02-11T01:05:41.770Z,83.99
2023-02-11T01:08:11.297Z,83.34
2023-02-11T01:10:40.718Z,83.27
2023-02-11T01:13:10.322Z,84.07
2023-02-11T01:15:39.698Z,84.19
2023-02-11T01:18:09.333Z,84.05
2023-02-11T01:20:53.781Z,84.17
2023-02-11T01:23:24.731Z,84.13
2023-02-11T01:25:54.757Z,84.05
2023-02-11T01:28:27.214Z,84.08
2023-02-11T01:30:57.611Z,84.34
2023-02-11T01:33:27.273Z,84.62
2023-02-11T01:35:56.851Z,84.40
2023-02-11T01:38:28.758Z,84.67
2023-02-11T01:41:01.930Z,84.49
2023-02-11T01:43:35.698Z,84.16
2023-02-11T01:46:30.125Z,84.63
2023-02-11T01:49:07.059Z,84.51
2023-02-11T01:51:41.882Z,84.88
2023-02-11T01:54:35.874Z,84.59
2023-02-11T01:57:26.286Z,84.48
2023-02-11T02:00:09.461Z,84.23
2023-02-11T02:02:46.260Z,84.67
2023-02-11T02:05:28.834Z,84.47
2023-02-11T02:08:08.833Z,84.48
2023-02-11T02:10:44.702Z,84.97
2023-02-11T02:13:14.756Z,84.80
2023-02-11T02:15:50.940Z,84.80
2023-02-11T02:18:36.348Z,84.84
2023-02-11T02:22:03.628Z,84.45
2023-02-11T02:25:01.410Z,84.55
2023-02-11T02:27:52.728Z,84.81
2023-02-11T02:31:03.161Z,84.49
2023-02-11T02:33:42.927Z,84.37
2023-02-11T02:36:22.466Z,84.36
2023-02-11T02:38:59.606Z,84.37
2023-02-11T02:41:33.115Z,84.33
2023-02-11T02:44:03.557Z,84.20
2023-02-11T02:46:36.178Z,83.93
2023-02-11T02:49:15.126Z,84.00
2023-02-11T02:52:20.913Z,84.37
2023-02-11T02:55:30.547Z,84.37
2023-02-11T02:58:31.561Z,84.40
2023-02-11T03:01:10.010Z,84.10
2023-02-11T03:03:51.945Z,84.15
2023-02-11T03:06:33.261Z,84.30
2023-02-11T03:09:11.477Z,84.02
2023-02-11T03:11:42.279Z,83.60
2023-02-11T03:14:16.270Z,84.15
2023-02-11T03:16:48.249Z,83.98
2023-02-11T03:19:23.408Z,84.07
2023-02-11T03:21:55.946Z,83.93
2023-02-11T03:24:33.353Z,84.01
2023-02-11T03:27:12.652Z,84.06
2023-02-11T03:29:49.532Z,84.33
2023-02-11T03:32:27.050Z,84.41
2023-02-11T03:35:00.332Z,84.16
2023-02-11T03:37:37.267Z,83.79
2023-02-11T03:40:11.838Z,84.27
2023-02-11T03:42:46.988Z,84.43
2023-02-11T03:45:21.998Z,84.05
2023-02-11T03:47:57.275Z,83.63
2023-02-11T03:51:37.870Z,84.18
2023-02-11T03:54:12.694Z,83.93
2023-02-11T03:56:52.654Z,83.77
2023-02-11T03:59:22.274Z,84.00
2023-02-11T04:01:51.903Z,84.33
2023-02-11T04:04:21.974Z,84.18
2023-02-11T04:06:52.925Z,83.64
2023-02-11T04:09:22.392Z,83.61
2023-02-11T04:11:51.951Z,83.98
2023-02-11T04:14:21.432Z,84.25
2023-02-11T04:16:51.070Z,84.73
2023-02-11T04:19:20.538Z,84.47
2023-02-11T04:21:51.568Z,83.87
2023-02-11T04:24:21.024Z,83.85
2023-02-11T04:26:50.695Z,84.22
2023-02-11T04:29:20.591Z,84.25
2023-02-11T04:31:50.167Z,84.30
2023-02-11T04:34:20.772Z,83.72
2023-02-11T04:36:51.958Z,83.94
2023-02-11T04:39:21.853Z,84.42
2023-02-11T04:41:51.398Z,83.91
2023-02-11T04:44:21.037Z,84.19
2023-02-11T04:46:50.571Z,84.40
2023-02-11T04:49:20.794Z,84.08
2023-02-11T04:51:51.698Z,83.64
2023-02-11T04:54:22.312Z,83.61
2023-02-11T04:56:55.131Z,83.96
2023-02-11T04:59:24.220Z,83.20
2023-02-11T05:01:53.833Z,83.33
2023-02-11T05:04:23.474Z,83.36
2023-02-11T05:06:55.633Z,83.86
2023-02-11T05:09:26.692Z,83.59
2023-02-11T05:11:56.256Z,83.73
2023-02-11T05:14:25.702Z,83.50
2023-02-11T05:16:55.255Z,83.84
2023-02-11T05:19:25.292Z,83.65
2023-02-11T05:22:02.565Z,83.95
2023-02-11T05:24:33.032Z,84.27
2023-02-11T05:27:02.844Z,83.97
2023-02-11T05:29:32.397Z,83.76
2023-02-11T05:32:01.788Z,83.96
2023-02-11T05:34:31.275Z,84.10
2023-02-11T05:37:02.038Z,84.13
2023-02-11T05:39:33.941Z,83.77
2023-02-11T05:42:03.556Z,83.90
2023-02-11T05:44:33.079Z,84.01
2023-02-11T05:47:02.732Z,83.96
2023-02-11T05:49:32.412Z,83.71
2023-02-11T05:52:03.589Z,83.90
2023-02-11T05:54:33.015Z,84.07
2023-02-11T05:57:02.439Z,83.78
2023-02-11T05:59:32.051Z,84.00
2023-02-11T06:02:01.413Z,84.16
2023-02-11T06:04:30.897Z,84.15
2023-02-11T06:07:01.600Z,84.47
2023-02-11T06:09:30.979Z,84.09
2023-02-11T06:12:01.397Z,84.06
2023-02-11T06:14:30.810Z,83.84
2023-02-11T06:17:01.727Z,83.82
2023-02-11T06:19:31.420Z,83.51
2023-02-11T06:22:02.434Z,83.31
2023-02-11T06:24:58.581Z,83.12
2023-02-11T06:27:21.794Z,82.99
2023-02-11T06:29:52.662Z,82.84
2023-02-11T06:32:42.660Z,82.96
2023-02-11T06:35:12.815Z,82.56
2023-02-11T06:37:44.201Z,82.48
2023-02-11T06:40:14.637Z,82.69
2023-02-11T06:42:44.946Z,82.56
2023-02-11T06:45:14.707Z,82.41
2023-02-11T06:47:44.239Z,82.83
2023-02-11T06:51:36.350Z,82.84
2023-02-11T06:54:07.877Z,83.33
2023-02-11T06:56:37.382Z,83.46
2023-02-11T06:59:06.916Z,83.08
2023-02-11T07:01:37.612Z,83.43
2023-02-11T07:04:08.399Z,84.29
2023-02-11T07:06:39.639Z,84.40
2023-02-11T07:09:09.859Z,84.34
2023-02-11T07:11:40.723Z,84.87
2023-02-11T07:14:13.582Z,84.82
2023-02-11T07:16:42.907Z,85.33
2023-02-11T07:19:13.056Z,85.89
2023-02-11T07:21:43.996Z,85.65
2023-02-11T07:24:14.156Z,84.71
2023-02-11T07:26:45.013Z,85.03
2023-02-11T07:29:14.576Z,85.12
2023-02-11T07:31:44.258Z,85.01
2023-02-11T07:34:14.198Z,82.80
2023-02-11T07:36:45.404Z,80.06
2023-02-11T07:39:14.973Z,77.28
2023-02-11T07:41:44.727Z,73.81
2023-02-11T07:44:14.172Z,73.33
2023-02-11T07:46:45.510Z,72.98
2023-02-11T07:49:15.365Z,72.61
2023-02-11T07:51:47.511Z,72.24
2023-02-11T07:54:17.008Z,69.69
2023-02-11T07:56:46.466Z,66.60
2023-02-11T07:59:16.206Z,64.82
2023-02-11T08:01:45.789Z,65.59
2023-02-11T08:04:15.419Z,65.29
2023-02-11T08:06:46.843Z,61.99
2023-02-11T08:09:18.612Z,61.26
2023-02-11T08:11:48.799Z,60.50
2023-02-11T08:14:18.868Z,59.55
2023-02-11T08:16:48.312Z,59.47
2023-02-11T08:19:19.133Z,56.43
2023-02-11T08:21:50.128Z,56.67
2023-02-11T08:24:19.611Z,56.78
2023-02-11T08:26:49.163Z,52.40
2023-02-11T08:29:19.940Z,51.56
2023-02-11T08:31:51.806Z,54.66
2023-02-11T08:34:22.231Z,54.27
2023-02-11T08:36:53.166Z,49.69
2023-02-11T08:39:24.648Z,50.84
2023-02-11T08:41:57.074Z,49.55
2023-02-11T08:44:26.762Z,48.47
2023-02-11T08:46:56.397Z,49.88
2023-02-11T08:49:25.851Z,48.15
2023-02-11T08:51:59.767Z,48.27
2023-02-11T08:54:29.285Z,48.33
2023-02-11T08:56:58.967Z,46.71
2023-02-11T08:59:28.696Z,47.04
2023-02-11T09:01:58.261Z,46.19
2023-02-11T09:04:27.906Z,44.86
2023-02-11T09:06:59.394Z,48.64
2023-02-11T09:09:28.992Z,47.46
2023-02-11T09:12:01.262Z,47.91
2023-02-11T09:14:31.066Z,46.38
2023-02-11T09:17:00.605Z,47.75
2023-02-11T09:19:30.111Z,47.62
2023-02-11T09:22:01.866Z,45.45
2023-02-11T09:24:31.432Z,47.79
2023-02-11T09:27:00.945Z,46.19
2023-02-11T09:29:31.071Z,47.74
2023-02-11T09:32:00.796Z,45.35
2023-02-11T09:34:30.484Z,44.99
2023-02-11T09:37:01.476Z,45.70
2023-02-11T09:39:31.087Z,46.86
2023-02-11T09:42:39.306Z,46.11
2023-02-11T09:45:17.914Z,46.04
2023-02-11T09:47:56.392Z,46.43
2023-02-11T09:51:44.119Z,46.89
2023-02-11T09:54:19.129Z,42.87
2023-02-11T09:56:48.666Z,44.79
2023-02-11T09:59:20.473Z,42.10
2023-02-11T10:01:55.067Z,45.75
2023-02-11T10:04:45.273Z,45.56
2023-02-11T10:07:26.694Z,45.18
2023-02-11T10:10:13.971Z,45.89
2023-02-11T10:13:02.267Z,45.37
2023-02-11T10:15:47.163Z,43.62
2023-02-11T10:18:48.812Z,44.42
2023-02-11T10:21:27.062Z,44.45
2023-02-11T10:24:03.674Z,43.18
2023-02-11T10:26:34.740Z,44.88
2023-02-11T10:29:28.572Z,45.75
2023-02-11T10:31:58.510Z,42.66
2023-02-11T10:34:28.512Z,46.16
2023-02-11T10:36:57.993Z,46.54
2023-02-11T10:39:32.190Z,44.59
2023-02-11T10:42:07.089Z,45.32
2023-02-11T10:44:40.505Z,44.22
2023-02-11T10:47:17.533Z,45.67
2023-02-11T10:49:48.434Z,45.41
2023-02-11T10:52:24.093Z,46.62
2023-02-11T10:55:16.351Z,46.71
2023-02-11T10:57:56.935Z,42.77
2023-02-11T11:00:38.252Z,46.01
2023-02-11T11:03:19.342Z,45.28
2023-02-11T11:05:52.272Z,45.60
2023-02-11T11:08:21.844Z,40.54
2023-02-11T11:11:09.233Z,43.76
2023-02-11T11:13:41.127Z,45.96
2023-02-11T11:16:26.585Z,46.00
2023-02-11T11:19:21.594Z,46.50
2023-02-11T11:21:53.417Z,44.84
2023-02-11T11:24:27.652Z,45.74
2023-02-11T11:27:02.333Z,47.79
2023-02-11T11:29:38.511Z,47.88
2023-02-11T11:32:15.422Z,47.69
2023-02-11T11:34:51.323Z,46.90
2023-02-11T11:37:27.938Z,47.07
2023-02-11T11:40:02.111Z,47.92
2023-02-11T11:42:36.040Z,46.47
2023-02-11T11:45:26.108Z,47.13
2023-02-11T11:47:59.977Z,48.38
2023-02-11T11:50:34.129Z,49.11
2023-02-11T11:53:09.155Z,46.75
2023-02-11T11:55:45.787Z,47.83
2023-02-11T11:58:20.856Z,48.32
2023-02-11T12:01:01.398Z,45.74
2023-02-11T12:04:25.636Z,43.73
2023-02-11T12:07:11.228Z,46.44
2023-02-11T12:10:00.286Z,47.03
2023-02-11T12:12:46.745Z,47.81
2023-02-11T12:15:34.622Z,46.81
2023-02-11T12:18:21.229Z,47.53
2023-02-11T12:21:13.020Z,47.16
2023-02-11T12:24:01.551Z,48.23
2023-02-11T12:26:38.212Z,47.51
2023-02-11T12:29:19.296Z,48.58
2023-02-11T12:32:11.983Z,48.36
2023-02-11T12:35:21.377Z,46.01
2023-02-11T12:38:22.374Z,46.40
2023-02-11T12:41:04.967Z,47.13
2023-02-11T12:43:39.542Z,46.64
2023-02-11T12:46:35.576Z,46.84
2023-02-11T12:51:53.878Z,43.97
2023-02-11T12:54:30.234Z,44.59
2023-02-11T12:57:05.156Z,44.73
2023-02-11T12:59:56.770Z,40.46
2023-02-11T13:02:38.658Z,43.18
2023-02-11T13:05:24.880Z,40.22
2023-02-11T13:08:00.469Z,42.58
2023-02-11T13:10:36.611Z,38.66
2023-02-11T13:13:17.894Z,42.39
2023-02-11T13:15:52.639Z,43.03
2023-02-11T13:18:46.168Z,42.93
2023-02-11T13:21:58.444Z,41.72
2023-02-11T13:24:41.674Z,41.58
2023-02-11T13:27:34.372Z,40.11
2023-02-11T13:30:30.400Z,38.98
2023-02-11T13:33:22.052Z,39.45
2023-02-11T13:36:25.942Z,40.13
2023-02-11T13:39:08.354Z,40.25
2023-02-11T13:41:46.139Z,41.46
2023-02-11T13:44:28.847Z,40.78
2023-02-11T13:47:05.014Z,43.07
2023-02-11T13:49:40.963Z,42.75
2023-02-11T13:52:26.099Z,40.08
2023-02-11T13:54:59.742Z,42.52
2023-02-11T13:57:36.212Z,43.83
2023-02-11T14:00:42.551Z,42.51
2023-02-11T14:03:56.512Z,41.51
2023-02-11T14:07:01.502Z,42.22
2023-02-11T14:09:41.332Z,42.30
2023-02-11T14:12:37.369Z,43.48
2023-02-11T14:15:33.148Z,42.56
2023-02-11T14:18:02.534Z,43.26
2023-02-11T14:20:45.811Z,41.80
2023-02-11T14:23:28.620Z,39.62
2023-02-11T14:26:23.016Z,42.36
2023-02-11T14:29:01.370Z,42.48
2023-02-11T14:31:40.599Z,42.39
2023-02-11T14:34:38.176Z,42.70
2023-02-11T14:37:21.194Z,44.50
2023-02-11T14:40:07.737Z,42.72
2023-02-11T14:42:39.690Z,45.39
2023-02-11T14:45:20.177Z,45.24
2023-02-11T14:47:55.871Z,44.95
2023-02-11T14:50:29.990Z,44.36
2023-02-11T14:53:03.974Z,45.51
2023-02-11T14:55:37.332Z,46.98
2023-02-11T14:58:16.759Z,46.76
2023-02-11T15:01:01.024Z,47.84
2023-02-11T15:03:35.224Z,48.09
2023-02-11T15:06:09.679Z,49.73
2023-02-11T15:08:42.188Z,49.14
2023-02-11T15:11:17.437Z,46.04
2023-02-11T15:13:49.959Z,46.91
2023-02-11T15:16:24.281Z,46.98
2023-02-11T15:18:57.637Z,47.83
2023-02-11T15:21:31.115Z,50.11
2023-02-11T15:24:03.763Z,48.33
2023-02-11T15:26:33.595Z,48.71
2023-02-11T15:29:03.161Z,48.83
2023-02-11T15:31:35.249Z,50.02
2023-02-11T15:34:10.671Z,51.44
2023-02-11T15:36:41.113Z,52.69
2023-02-11T15:39:31.778Z,52.48
2023-02-11T15:42:25.140Z,52.10
2023-02-11T15:45:10.392Z,52.97
2023-02-11T15:47:42.612Z,53.84
2023-02-11T15:51:40.159Z,53.35
2023-02-11T15:54:20.434Z,53.72
2023-02-11T15:56:55.722Z,55.41
2023-02-11T15:59:31.231Z,55.67
2023-02-11T16:02:08.828Z,55.61
2023-02-11T16:04:39.451Z,56.32
2023-02-11T16:07:45.125Z,56.16
2023-02-11T16:10:29.711Z,56.11
2023-02-11T16:13:20.997Z,56.75
2023-02-11T16:15:54.529Z,57.49
2023-02-11T16:18:38.769Z,57.74
2023-02-11T16:21:18.169Z,58.81
2023-02-11T16:23:56.489Z,59.46
2023-02-11T16:26:32.873Z,59.88
2023-02-11T16:29:13.243Z,59.50
2023-02-11T16:31:45.394Z,59.54
2023-02-11T16:34:20.793Z,60.26
2023-02-11T16:36:51.341Z,60.32
2023-02-11T16:39:24.853Z,60.33
2023-02-11T16:41:54.751Z,61.61
2023-02-11T16:44:24.776Z,61.64
2023-02-11T16:46:54.970Z,61.75
2023-02-11T16:49:27.494Z,62.36
2023-02-11T16:52:01.474Z,62.42
2023-02-11T16:54:32.794Z,62.88
2023-02-11T16:57:02.660Z,62.88
2023-02-11T16:59:32.163Z,62.93
2023-02-11T17:02:01.914Z,62.45
2023-02-11T17:04:34.593Z,62.83
2023-02-11T17:07:04.276Z,63.99
2023-02-11T17:09:35.422Z,63.98
2023-02-11T17:12:05.040Z,63.50
2023-02-11T17:14:34.669Z,63.49
2023-02-11T17:17:04.331Z,65.24
2023-02-11T17:19:34.029Z,65.02
2023-02-11T17:22:03.563Z,65.87
2023-02-11T17:24:34.939Z,65.60
2023-02-11T17:27:04.567Z,65.54
2023-02-11T17:29:34.092Z,65.90
2023-02-11T17:32:03.885Z,66.70
2023-02-11T17:34:33.769Z,66.91
2023-02-11T17:37:09.286Z,67.36
2023-02-11T17:39:41.457Z,67.86
2023-02-11T17:42:12.030Z,67.65
2023-02-11T17:44:41.899Z,67.66
2023-02-11T17:47:11.427Z,67.81
2023-02-11T17:49:41.325Z,67.01
2023-02-11T17:52:11.330Z,67.31
2023-02-11T17:54:42.206Z,67.57
2023-02-11T17:57:13.796Z,68.06
2023-02-11T17:59:43.266Z,67.27
2023-02-11T18:02:14.421Z,67.83
2023-02-11T18:04:44.124Z,68.32
2023-02-11T18:07:13.779Z,68.52
2023-02-11T18:09:45.164Z,68.16
2023-02-11T18:12:14.524Z,68.59
2023-02-11T18:14:44.527Z,68.72
2023-02-11T18:17:14.108Z,69.47
2023-02-11T18:19:43.581Z,70.02
2023-02-11T18:22:13.067Z,69.37
2023-02-11T18:24:44.286Z,69.63
2023-02-11T18:27:14.654Z,70.24
2023-02-11T18:29:44.134Z,69.65
2023-02-11T18:32:14.066Z,70.08
2023-02-11T18:34:43.973Z,70.62
2023-02-11T18:37:14.550Z,70.35
2023-02-11T18:39:45.732Z,70.79
2023-02-11T18:42:15.339Z,71.15
2023-02-11T18:44:45.014Z,71.82
2023-02-11T18:47:14.374Z,70.86
2023-02-11T18:51:36.794Z,71.56
2023-02-11T18:54:06.493Z,71.75
2023-02-11T18:56:36.381Z,71.80
2023-02-11T18:59:06.505Z,71.74
2023-02-11T19:01:36.558Z,71.83
2023-02-11T19:04:07.525Z,70.91
2023-02-11T19:06:39.754Z,70.94
2023-02-11T19:09:11.678Z,71.91
2023-02-11T19:11:49.882Z,72.59
2023-02-11T19:14:23.471Z,72.34
2023-02-11T19:16:55.690Z,72.40
2023-02-11T19:19:28.243Z,72.77
2023-02-11T19:22:00.912Z,72.75
2023-02-11T19:24:31.620Z,73.22
2023-02-11T19:27:03.916Z,73.27
2023-02-11T19:29:35.444Z,73.31
2023-02-11T19:32:06.684Z,73.63
2023-02-11T19:34:41.476Z,73.54
2023-02-11T19:37:13.690Z,74.13
2023-02-11T19:39:44.033Z,73.83
2023-02-11T19:42:14.111Z,74.44
2023-02-11T19:44:43.741Z,74.00
2023-02-11T19:47:14.153Z,74.48
2023-02-11T19:49:43.652Z,73.95
2023-02-11T19:52:14.534Z,73.64
2023-02-11T19:54:43.891Z,74.06
2023-02-11T19:57:13.309Z,74.34
2023-02-11T19:59:43.071Z,74.30
2023-02-11T20:02:14.317Z,74.13
2023-02-11T20:04:43.748Z,74.68
2023-02-11T20:07:14.838Z,75.23
2023-02-11T20:09:44.594Z,74.85
2023-02-11T20:12:14.029Z,74.85
2023-02-11T20:14:43.472Z,75.08
2023-02-11T20:17:13.031Z,75.28
2023-02-11T20:19:42.447Z,75.49
2023-02-11T20:22:13.490Z,75.47
2023-02-11T20:24:43.101Z,75.54
2023-02-11T20:27:12.916Z,75.85
2023-02-11T20:29:42.715Z,75.94
2023-02-11T20:32:13.739Z,75.82
2023-02-11T20:34:43.249Z,75.92
2023-02-11T20:37:14.042Z,75.94
2023-02-11T20:39:45.485Z,75.97
2023-02-11T20:42:15.270Z,76.04
2023-02-11T20:44:44.816Z,76.40
2023-02-11T20:47:15.714Z,76.50
2023-02-11T20:49:45.277Z,76.76
2023-02-11T20:52:16.351Z,76.70
2023-02-11T20:54:45.843Z,77.07
2023-02-11T20:57:15.452Z,77.26
2023-02-11T20:59:45.008Z,77.05
2023-02-11T21:02:14.917Z,77.18
2023-02-11T21:04:44.566Z,77.46
2023-02-11T21:07:17.291Z,77.75
2023-02-11T21:09:46.754Z,77.63
2023-02-11T21:12:16.259Z,77.78
2023-02-11T21:14:46.014Z,77.94
2023-02-11T21:17:15.650Z,77.90
2023-02-11T21:19:45.563Z,77.91
2023-02-11T21:22:16.650Z,77.66
2023-02-11T21:24:46.105Z,77.62
2023-02-11T21:27:16.296Z,77.99
2023-02-11T21:29:54.290Z,77.61
2023-02-11T21:32:24.257Z,77.91
2023-02-11T21:34:54.184Z,77.56
2023-02-11T21:37:26.640Z,77.73
2023-02-11T21:39:56.040Z,78.87
2023-02-11T21:42:25.659Z,78.59
2023-02-11T21:44:56.601Z,78.61
2023-02-11T21:47:26.176Z,78.38
2023-02-11T21:51:38.487Z,78.59
2023-02-11T21:54:08.096Z,78.70
2023-02-11T21:56:37.622Z,78.67
2023-02-11T21:59:07.018Z,78.85
2023-02-11T22:01:37.137Z,78.66
2023-02-11T22:04:06.918Z,78.89
2023-02-11T22:06:37.918Z,78.91
2023-02-11T22:09:11.067Z,79.20
2023-02-11T22:11:40.878Z,79.06
2023-02-11T22:14:10.562Z,79.00
2023-02-11T22:16:40.275Z,79.24
2023-02-11T22:19:10.582Z,78.94
2023-02-11T22:21:43.439Z,78.47
2023-02-11T22:24:12.771Z,79.06
2023-02-11T22:26:42.480Z,78.76
2023-02-11T22:29:12.620Z,79.11
2023-02-11T22:31:42.244Z,79.01
2023-02-11T22:34:12.053Z,78.94
2023-02-11T22:36:45.691Z,78.94
2023-02-11T22:39:17.966Z,78.98
2023-02-11T22:41:49.253Z,78.78
2023-02-11T22:44:20.301Z,78.87
2023-02-11T22:46:49.968Z,80.02
2023-02-11T22:49:21.917Z,79.12
2023-02-11T22:51:52.989Z,79.43
2023-02-11T22:54:23.023Z,79.13
2023-02-11T22:56:53.807Z,79.80
2023-02-11T22:59:23.836Z,80.09
2023-02-11T23:01:53.405Z,79.96
2023-02-11T23:04:22.944Z,80.47
2023-02-11T23:06:54.042Z,79.93
2023-02-11T23:09:23.728Z,80.13
2023-02-11T23:11:54.576Z,80.18
2023-02-11T23:14:24.597Z,79.72
2023-02-11T23:16:54.203Z,79.00
2023-02-11T23:19:24.252Z,79.84
2023-02-11T23:21:55.371Z,78.93
2023-02-11T23:24:24.951Z,78.66
2023-02-11T23:26:54.607Z,78.46
2023-02-11T23:29:24.053Z,78.38
2023-02-11T23:31:54.408Z,77.75
2023-02-11T23:34:25.770Z,77.55
2023-02-11T23:36:59.456Z,77.76
2023-02-11T23:39:28.999Z,77.97
2023-02-11T23:41:59.753Z,78.18
2023-02-11T23:44:29.754Z,77.84
2023-02-11T23:46:59.163Z,77.83
2023-02-11T23:49:28.787Z,77.46
2023-02-11T23:51:59.787Z,77.91
2023-02-11T23:54:29.368Z,78.24
2023-02-11T23:56:59.047Z,78.65
2023-02-11T23:59:28.655Z,79.61
